Time;durP1;ratioP1;P1;durP2;ratioP2;P2;SDS_P1;SDS_P2;PMS_P1;PMS_P2;Temp;Humidity;BMP_temperature;BMP_pressure;BME280_temperature;BME280_humidity;BME280_pressure;Samples;Min_cycle;Max_cycle;Signal;HPM_P1;HPM_P2
2023/10/11 00:00:39;;;;;;;20.70;11.27;;;11.90;99.90;;;;;;5061450;28;20245;-71
2023/10/11 00:03:15;;;;;;;21.23;12.37;;;11.90;99.90;;;;;;5054813;28;20212;-71
2023/10/11 00:05:45;;;;;;;18.93;11.90;;;11.90;99.90;;;;;;5043654;28;20637;-72
2023/10/11 00:08:16;;;;;;;19.97;11.60;;;12.00;99.90;;;;;;5060151;28;20362;-71
2023/10/11 00:10:49;;;;;;;16.87;10.07;;;12.00;99.90;;;;;;5056542;28;20211;-71
2023/10/11 00:13:16;;;;;;;13.37;9.23;;;12.00;99.90;;;;;;5055405;28;20201;-72
2023/10/11 00:15:48;;;;;;;15.07;9.77;;;12.00;99.90;;;;;;5052895;28;20201;-72
2023/10/11 00:18:19;;;;;;;17.47;10.80;;;12.00;99.90;;;;;;5057215;28;20300;-72
2023/10/11 00:20:51;;;;;;;17.70;10.23;;;12.10;99.90;;;;;;5052066;28;20194;-72
2023/10/11 00:23:22;;;;;;;14.80;9.37;;;12.10;99.90;;;;;;5051600;28;20200;-71
2023/10/11 00:25:50;;;;;;;20.00;10.90;;;12.10;99.90;;;;;;5051192;28;20795;-72
2023/10/11 00:28:22;;;;;;;12.63;8.50;;;12.10;99.90;;;;;;5068388;28;20313;-72
2023/10/11 00:30:51;;;;;;;13.27;8.37;;;12.10;99.90;;;;;;5058289;28;20286;-72
2023/10/11 00:33:18;;;;;;;14.93;9.00;;;12.20;99.90;;;;;;5053105;28;20197;-72
2023/10/11 00:35:47;;;;;;;15.23;9.87;;;12.20;99.90;;;;;;5061067;28;20209;-72
2023/10/11 00:38:19;;;;;;;11.57;8.33;;;12.20;99.90;;;;;;5065026;28;20202;-71
2023/10/11 00:41:00;;;;;;;20.07;10.83;;;12.30;99.90;;;;;;5049525;28;20210;-72
2023/10/11 00:43:35;;;;;;;22.07;11.80;;;12.30;99.90;;;;;;5053214;28;20248;-72
2023/10/11 00:46:08;;;;;;;17.53;10.00;;;12.30;99.90;;;;;;5047052;28;20293;-72
2023/10/11 00:48:36;;;;;;;16.83;9.90;;;12.40;99.90;;;;;;5045080;28;20191;-72
2023/10/11 00:51:07;;;;;;;22.03;11.93;;;12.30;99.90;;;;;;5054541;28;20213;-72
2023/10/11 00:53:36;;;;;;;19.63;10.73;;;12.40;99.90;;;;;;5047150;28;20190;-72
2023/10/11 00:56:05;;;;;;;19.17;10.80;;;12.40;99.90;;;;;;5061517;28;20201;-72
2023/10/11 00:58:32;;;;;;;22.40;11.33;;;12.40;99.90;;;;;;5057707;28;20670;-72
2023/10/11 01:01:02;;;;;;;15.50;9.50;;;12.40;99.90;;;;;;5051192;28;20601;-72
2023/10/11 01:03:32;;;;;;;24.17;12.70;;;12.50;99.90;;;;;;5054412;28;20297;-72
2023/10/11 01:06:00;;;;;;;19.97;10.57;;;12.50;99.90;;;;;;5057389;28;20200;-73
2023/10/11 01:08:27;;;;;;;14.73;9.27;;;12.50;99.90;;;;;;5049291;28;20198;-72
2023/10/11 01:10:56;;;;;;;22.77;12.33;;;12.50;99.90;;;;;;5060385;28;20313;-71
2023/10/11 01:13:23;;;;;;;19.97;10.43;;;12.50;99.90;;;;;;5052446;28;20567;-72
2023/10/11 01:15:50;;;;;;;26.50;14.80;;;12.50;99.90;;;;;;5054695;28;20594;-72
2023/10/11 01:18:19;;;;;;;34.53;15.23;;;12.60;99.90;;;;;;5059955;28;20225;-72
2023/10/11 01:20:48;;;;;;;26.07;12.73;;;12.60;99.90;;;;;;5057260;28;20653;-72
2023/10/11 01:23:16;;;;;;;21.30;12.03;;;12.60;99.90;;;;;;5050139;28;20193;-72
2023/10/11 01:25:43;;;;;;;23.67;12.13;;;12.60;99.90;;;;;;5057799;28;20240;-72
2023/10/11 01:28:11;;;;;;;20.67;11.87;;;12.70;99.90;;;;;;5046688;28;20285;-72
2023/10/11 01:30:38;;;;;;;19.47;11.23;;;12.70;99.90;;;;;;5055529;28;20213;-72
2023/10/11 01:33:07;;;;;;;17.73;10.30;;;12.70;99.90;;;;;;5057645;28;20210;-72
2023/10/11 01:35:38;;;;;;;21.43;11.07;;;12.70;99.90;;;;;;5052299;28;20569;-72
2023/10/11 01:38:07;;;;;;;15.93;9.93;;;12.70;99.90;;;;;;5057953;28;20635;-72
2023/10/11 01:40:34;;;;;;;15.90;9.30;;;12.70;99.90;;;;;;5061580;28;20197;-72
2023/10/11 01:43:03;;;;;;;18.97;10.27;;;12.80;99.90;;;;;;5048339;28;20680;-72
2023/10/11 01:45:33;;;;;;;21.00;11.77;;;12.80;99.90;;;;;;5060663;28;20210;-72
2023/10/11 01:48:00;;;;;;;23.20;12.23;;;12.80;99.90;;;;;;5055349;28;20204;-72
2023/10/11 01:50:28;;;;;;;25.10;13.70;;;12.80;99.90;;;;;;5069287;28;20234;-72
2023/10/11 01:52:55;;;;;;;21.63;12.07;;;12.80;99.90;;;;;;5060073;28;20205;-72
2023/10/11 01:55:24;;;;;;;23.13;12.60;;;12.80;99.90;;;;;;5055444;28;20580;-72
2023/10/11 01:57:51;;;;;;;17.43;10.77;;;12.80;99.90;;;;;;5052536;28;20680;-72
2023/10/11 02:00:24;;;;;;;21.40;12.03;;;12.80;99.90;;;;;;5051794;28;20239;-72
2023/10/11 02:02:55;;;;;;;23.60;14.07;;;12.90;99.90;;;;;;5046772;28;20244;-72
2023/10/11 02:05:23;;;;;;;29.47;15.63;;;12.90;99.90;;;;;;5051520;28;20209;-72
2023/10/11 02:07:52;;;;;;;23.93;13.63;;;12.90;99.90;;;;;;5048505;28;20191;-72
2023/10/11 02:10:25;;;;;;;22.00;13.00;;;12.90;99.90;;;;;;5049005;28;20305;-72
2023/10/11 02:12:56;;;;;;;27.87;15.83;;;12.90;99.90;;;;;;5053366;28;20193;-72
2023/10/11 02:15:28;;;;;;;30.00;15.30;;;12.90;99.90;;;;;;5054012;28;20206;-72
2023/10/11 02:17:55;;;;;;;27.57;14.77;;;12.90;99.90;;;;;;5049453;28;20248;-72
2023/10/11 02:20:23;;;;;;;32.97;16.93;;;12.90;99.90;;;;;;5062118;28;20733;-72
2023/10/11 02:22:52;;;;;;;26.93;13.20;;;12.90;99.90;;;;;;5048040;28;20198;-72
2023/10/11 02:25:20;;;;;;;26.50;14.10;;;12.90;99.90;;;;;;5062679;28;20653;-72
2023/10/11 02:27:49;;;;;;;25.57;13.50;;;12.90;99.90;;;;;;5054465;28;20198;-72
2023/10/11 02:30:22;;;;;;;26.67;13.43;;;12.90;99.90;;;;;;5052396;28;20213;-72
2023/10/11 02:32:52;;;;;;;23.93;13.43;;;12.90;99.90;;;;;;5049882;28;20207;-72
2023/10/11 02:35:20;;;;;;;23.43;13.80;;;13.00;99.90;;;;;;5052751;28;20209;-72
2023/10/11 02:37:47;;;;;;;20.47;12.43;;;13.00;99.90;;;;;;5044594;28;20206;-72
2023/10/11 02:40:22;;;;;;;27.77;14.70;;;13.00;99.90;;;;;;5051708;28;20273;-72
2023/10/11 02:42:51;;;;;;;23.00;13.70;;;13.00;99.90;;;;;;5049345;28;20306;-72
2023/10/11 02:45:21;;;;;;;28.37;15.17;;;13.00;99.90;;;;;;5048667;28;20195;-72
2023/10/11 02:47:49;;;;;;;29.97;15.83;;;13.00;99.90;;;;;;5050528;28;20198;-72
2023/10/11 02:50:17;;;;;;;25.47;14.33;;;13.00;99.90;;;;;;5048064;28;20651;-72
2023/10/11 02:52:44;;;;;;;22.50;12.40;;;13.00;99.90;;;;;;5046571;28;20195;-72
2023/10/11 02:55:20;;;;;;;25.53;14.27;;;13.10;99.90;;;;;;5055097;28;20218;-72
2023/10/11 02:57:47;;;;;;;23.67;13.23;;;13.00;99.90;;;;;;5039424;28;20247;-72
2023/10/11 03:00:22;;;;;;;26.40;14.87;;;13.00;99.90;;;;;;5054780;28;20238;-72
2023/10/11 03:02:55;;;;;;;23.03;12.90;;;13.10;99.90;;;;;;5051802;28;20190;-72
2023/10/11 03:05:27;;;;;;;22.77;12.80;;;13.10;99.90;;;;;;5070185;28;20220;-72
2023/10/11 03:08:13;;;;;;;25.53;12.37;;;13.10;99.90;;;;;;5046270;28;20220;-72
2023/10/11 03:10:44;;;;;;;25.50;13.87;;;13.10;99.90;;;;;;5049298;28;20264;-72
2023/10/11 03:13:19;;;;;;;24.73;14.60;;;13.10;99.90;;;;;;5050818;28;20293;-72
2023/10/11 03:15:54;;;;;;;27.10;14.83;;;13.10;99.90;;;;;;5054364;28;20218;-72
2023/10/11 03:18:25;;;;;;;22.53;13.43;;;13.20;99.90;;;;;;5057563;28;20220;-72
2023/10/11 03:21:07;;;;;;;24.00;13.27;;;13.10;99.90;;;;;;5061018;28;20682;-72
2023/10/11 03:23:37;;;;;;;20.87;11.80;;;13.10;99.90;;;;;;5049365;28;20227;-72
2023/10/11 03:26:16;;;;;;;28.83;14.77;;;13.20;99.90;;;;;;5046503;28;20269;-73
2023/10/11 03:28:44;;;;;;;25.00;14.03;;;13.20;99.90;;;;;;5046120;28;20249;-72
2023/10/11 03:31:12;;;;;;;24.80;13.83;;;13.20;99.90;;;;;;5046375;28;20223;-72
2023/10/11 03:33:42;;;;;;;19.33;11.53;;;13.20;99.90;;;;;;5048461;28;20190;-72
2023/10/11 03:36:18;;;;;;;31.30;15.43;;;13.30;99.90;;;;;;5042557;28;20241;-72
2023/10/11 03:38:53;;;;;;;30.27;15.53;;;13.30;99.90;;;;;;5058612;28;20278;-72
2023/10/11 03:41:28;;;;;;;25.37;13.80;;;13.30;99.90;;;;;;5061899;28;20192;-72
2023/10/11 03:44:00;;;;;;;21.90;13.43;;;13.30;99.90;;;;;;5060856;28;20210;-72
2023/10/11 03:46:33;;;;;;;26.60;13.40;;;13.30;99.90;;;;;;5052195;28;20203;-72
2023/10/11 03:49:35;;;;;;;20.53;11.47;;;13.30;99.90;;;;;;5053283;28;20206;-71
2023/10/11 03:52:04;;;;;;;22.10;13.23;;;13.30;99.90;;;;;;5053043;28;20217;-72
2023/10/11 03:54:31;;;;;;;19.47;11.50;;;13.30;99.90;;;;;;5053935;28;20201;-72
2023/10/11 03:57:04;;;;;;;20.67;12.30;;;13.30;99.90;;;;;;5069592;28;20561;-72
2023/10/11 03:59:38;;;;;;;22.10;12.73;;;13.40;99.90;;;;;;5050559;28;20731;-72
2023/10/11 04:02:10;;;;;;;19.57;11.87;;;13.40;99.90;;;;;;5061508;28;20195;-72
2023/10/11 04:04:42;;;;;;;23.20;13.30;;;13.40;99.90;;;;;;5052360;28;20190;-72
2023/10/11 04:07:12;;;;;;;20.43;12.23;;;13.50;99.90;;;;;;5056538;28;20199;-72
2023/10/11 04:09:39;;;;;;;24.07;12.77;;;13.50;99.90;;;;;;5059437;28;20214;-71
2023/10/11 04:12:10;;;;;;;19.17;11.83;;;13.50;99.90;;;;;;5065306;28;20218;-72
2023/10/11 04:14:44;;;;;;;21.70;12.03;;;13.50;99.90;;;;;;5054043;28;20217;-71
2023/10/11 04:17:25;;;;;;;18.63;11.77;;;13.50;99.90;;;;;;5054994;28;20210;-71
2023/10/11 04:20:00;;;;;;;24.60;13.27;;;13.50;99.90;;;;;;5047529;28;21301;-71
2023/10/11 04:22:31;;;;;;;16.63;10.57;;;13.60;99.90;;;;;;5057033;28;20193;-71
2023/10/11 04:25:09;;;;;;;20.23;11.77;;;13.60;99.90;;;;;;5059389;28;20281;-71
2023/10/11 04:27:54;;;;;;;21.20;13.07;;;13.60;99.90;;;;;;5052035;28;20199;-71
2023/10/11 04:30:32;;;;;;;19.20;11.40;;;13.60;99.90;;;;;;5058923;28;20318;-71
2023/10/11 04:33:01;;;;;;;15.90;10.07;;;13.70;99.90;;;;;;5051222;28;20183;-71
2023/10/11 04:35:37;;;;;;;19.90;11.37;;;13.70;99.90;;;;;;5058258;28;20204;-71
2023/10/11 04:38:05;;;;;;;19.90;12.20;;;13.70;99.90;;;;;;5049233;28;20703;-71
2023/10/11 04:40:49;;;;;;;18.60;11.87;;;13.70;99.90;;;;;;5052239;28;20289;-71
2023/10/11 04:43:24;;;;;;;12.67;8.80;;;13.80;99.90;;;;;;5052049;28;20598;-71
2023/10/11 04:45:54;;;;;;;12.47;8.73;;;13.80;99.90;;;;;;5064080;28;20210;-71
2023/10/11 04:48:30;;;;;;;13.77;10.13;;;13.80;99.90;;;;;;5049063;28;20188;-71
2023/10/11 04:51:07;;;;;;;14.33;8.80;;;13.80;99.90;;;;;;5063492;28;20203;-71
2023/10/11 04:53:45;;;;;;;12.07;8.17;;;13.90;99.90;;;;;;5051988;28;20218;-71
2023/10/11 04:56:51;;;;;;;14.57;9.37;;;13.90;99.90;;;;;;5049321;28;20196;-71
2023/10/11 04:59:06;;;;;;;14.00;9.23;;;13.90;99.90;;;;;;5048240;28;20186;-71
2023/10/11 05:01:58;;;;;;;16.57;9.80;;;13.90;99.90;;;;;;5044131;28;20990;-70
2023/10/11 05:04:27;;;;;;;14.00;9.73;;;14.00;99.90;;;;;;5039597;28;20710;-71
2023/10/11 05:06:57;;;;;;;15.77;11.03;;;14.00;99.90;;;;;;5045280;28;20224;-71
2023/10/11 05:09:37;;;;;;;18.13;11.23;;;14.00;99.90;;;;;;5042029;28;20208;-71
2023/10/11 05:12:08;;;;;;;16.13;11.23;;;14.00;99.90;;;;;;5050084;28;20576;-71
2023/10/11 05:14:39;;;;;;;19.73;11.73;;;14.00;99.90;;;;;;5048903;28;20238;-70
2023/10/11 05:19:57;;;;;;;15.43;10.30;;;14.10;99.90;;;;;;5054170;28;20209;-72
2023/10/11 05:22:49;;;;;;;13.80;9.83;;;14.10;99.90;;;;;;5053884;28;20555;-71
2023/10/11 05:25:39;;;;;;;17.23;11.40;;;14.10;99.90;;;;;;5056808;28;20556;-71
2023/10/11 05:28:26;;;;;;;18.83;12.43;;;14.20;99.90;;;;;;5051038;28;20187;-71
2023/10/11 05:31:19;;;;;;;20.27;13.63;;;14.20;99.90;;;;;;5057613;28;20194;-72
2023/10/11 05:33:59;;;;;;;17.80;11.90;;;14.20;99.90;;;;;;5062914;28;20227;-71
2023/10/11 05:36:40;;;;;;;18.63;12.27;;;14.20;99.90;;;;;;5056978;28;20191;-72
2023/10/11 05:52:55;;;;;;;13.63;9.23;;;14.30;99.90;;;;;;5040119;28;20217;-72
2023/10/11 05:55:24;;;;;;;15.87;9.83;;;14.30;99.90;;;;;;5046821;28;20315;-72
2023/10/11 05:57:51;;;;;;;14.57;9.67;;;14.40;99.90;;;;;;5043819;28;20201;-72
2023/10/11 06:00:25;;;;;;;10.70;7.83;;;14.40;99.90;;;;;;5054802;28;20743;-72
2023/10/11 06:02:53;;;;;;;15.77;11.57;;;14.40;99.90;;;;;;5038001;28;20346;-72
2023/10/11 06:05:23;;;;;;;14.90;11.27;;;14.40;99.90;;;;;;5045669;28;20216;-72
2023/10/11 06:08:03;;;;;;;16.47;10.73;;;14.40;99.90;;;;;;5048163;28;20203;-72
2023/10/11 06:10:41;;;;;;;21.43;11.83;;;14.50;99.90;;;;;;5048946;28;20196;-72
2023/10/11 06:13:13;;;;;;;15.43;10.90;;;14.50;99.90;;;;;;5048657;28;20299;-72
2023/10/11 06:15:45;;;;;;;10.63;8.47;;;14.50;99.90;;;;;;5057314;28;20223;-72
2023/10/11 06:18:36;;;;;;;16.40;10.37;;;14.60;99.90;;;;;;5047136;28;20197;-72
2023/10/11 06:21:05;;;;;;;16.63;10.80;;;14.60;99.90;;;;;;5049763;28;20220;-72
2023/10/11 06:23:38;;;;;;;13.60;10.10;;;14.60;99.90;;;;;;5044483;28;20193;-72
2023/10/11 06:29:02;;;;;;;16.13;11.83;;;14.70;99.90;;;;;;5044527;28;20568;-72
2023/10/11 06:31:33;;;;;;;15.40;10.73;;;14.70;99.90;;;;;;5042048;28;20205;-72
2023/10/11 06:34:03;;;;;;;18.40;11.83;;;14.70;99.90;;;;;;5050254;28;20207;-73
2023/10/11 06:36:35;;;;;;;22.50;12.57;;;14.70;99.90;;;;;;5049408;28;20224;-72
2023/10/11 06:39:29;;;;;;;11.93;9.80;;;14.70;99.90;;;;;;5051566;28;20219;-72
2023/10/11 06:41:52;;;;;;;18.20;11.97;;;14.80;99.90;;;;;;5050876;28;20184;-72
2023/10/11 06:44:19;;;;;;;15.93;11.37;;;14.80;99.90;;;;;;5044372;28;20189;-72
2023/10/11 06:46:50;;;;;;;14.93;11.23;;;14.80;99.90;;;;;;5054571;28;20207;-72
2023/10/11 06:49:19;;;;;;;16.63;11.10;;;14.80;99.90;;;;;;5050286;28;20201;-72
2023/10/11 06:51:50;;;;;;;14.13;10.80;;;14.90;99.90;;;;;;5044314;28;20667;-72
2023/10/11 06:54:23;;;;;;;14.40;10.20;;;14.90;99.90;;;;;;5052608;28;20199;-72
2023/10/11 06:56:51;;;;;;;15.83;11.37;;;14.90;99.90;;;;;;5050132;28;20209;-72
2023/10/11 06:59:20;;;;;;;14.40;10.63;;;14.90;99.90;;;;;;5041531;28;20475;-72
2023/10/11 07:01:47;;;;;;;16.57;10.47;;;15.00;99.90;;;;;;5048716;28;20298;-72
2023/10/11 07:04:18;;;;;;;15.90;11.50;;;15.00;99.90;;;;;;5043835;28;20632;-72
2023/10/11 07:06:48;;;;;;;15.43;11.17;;;15.00;99.90;;;;;;5054594;28;20292;-72
2023/10/11 07:09:20;;;;;;;15.77;10.90;;;15.00;99.90;;;;;;5051253;28;20306;-72
2023/10/11 07:11:51;;;;;;;17.53;12.17;;;15.10;99.90;;;;;;5049518;28;20216;-72
2023/10/11 07:14:25;;;;;;;14.73;10.70;;;15.10;99.90;;;;;;5054818;28;20193;-72
2023/10/11 07:16:53;;;;;;;15.17;10.80;;;15.10;99.90;;;;;;5056953;28;20232;-72
2023/10/11 07:19:20;;;;;;;15.33;10.63;;;15.20;99.90;;;;;;5041899;28;20272;-72
2023/10/11 07:21:52;;;;;;;15.77;10.77;;;15.20;99.90;;;;;;5049765;28;20200;-72
2023/10/11 07:24:33;;;;;;;16.17;11.43;;;15.20;99.90;;;;;;5054435;28;20496;-72
2023/10/11 07:27:08;;;;;;;15.83;11.07;;;15.20;99.90;;;;;;5044202;28;20310;-71
2023/10/11 07:29:37;;;;;;;15.07;10.60;;;15.20;99.90;;;;;;5042030;28;20200;-72
2023/10/11 07:32:09;;;;;;;15.13;10.17;;;15.30;99.90;;;;;;5048687;28;20610;-72
2023/10/11 07:34:36;;;;;;;16.43;9.37;;;15.30;99.90;;;;;;5052688;28;20280;-72
2023/10/11 07:37:05;;;;;;;19.50;12.60;;;15.30;99.90;;;;;;5048604;28;20193;-72
2023/10/11 07:39:34;;;;;;;14.70;11.30;;;15.40;99.90;;;;;;5039383;28;20197;-72
2023/10/11 07:42:04;;;;;;;12.70;10.17;;;15.40;99.90;;;;;;5074144;28;20276;-72
2023/10/11 07:44:36;;;;;;;12.07;9.43;;;15.40;99.90;;;;;;5047043;28;20597;-72
2023/10/11 07:47:06;;;;;;;16.90;11.40;;;15.40;99.90;;;;;;5048189;28;20200;-72
2023/10/11 07:49:39;;;;;;;14.23;10.20;;;15.40;99.90;;;;;;5047982;28;20328;-72
2023/10/11 07:52:09;;;;;;;13.47;9.63;;;15.50;99.90;;;;;;5046633;28;20202;-72
2023/10/11 07:54:39;;;;;;;11.53;8.97;;;15.50;99.90;;;;;;5047404;28;20556;-72
2023/10/11 07:57:13;;;;;;;9.73;7.83;;;15.50;99.90;;;;;;5053914;28;20209;-72
2023/10/11 07:59:40;;;;;;;12.70;10.03;;;15.60;99.90;;;;;;5040336;28;20245;-72
2023/10/11 08:02:26;;;;;;;12.13;8.40;;;15.60;99.90;;;;;;5053199;28;20640;-72
2023/10/11 08:04:53;;;;;;;13.63;9.63;;;15.60;99.90;;;;;;5048233;28;20197;-72
2023/10/11 08:07:22;;;;;;;13.00;8.07;;;15.70;99.90;;;;;;5047567;28;20194;-72
2023/10/11 08:09:52;;;;;;;7.83;6.60;;;15.70;99.90;;;;;;5056298;28;20276;-72
2023/10/11 08:12:22;;;;;;;15.87;9.10;;;15.80;99.90;;;;;;5057336;28;20301;-72
2023/10/11 08:14:49;;;;;;;13.33;8.43;;;15.80;99.90;;;;;;5058116;28;20194;-72
2023/10/11 08:17:19;;;;;;;9.33;7.43;;;15.80;99.90;;;;;;5060738;28;20194;-72
2023/10/11 08:19:48;;;;;;;12.10;8.63;;;15.90;99.90;;;;;;5051322;28;20285;-72
2023/10/11 08:22:17;;;;;;;12.40;8.33;;;15.90;99.90;;;;;;5063798;28;20269;-72
2023/10/11 08:24:49;;;;;;;7.30;6.50;;;15.90;99.90;;;;;;5057066;28;20239;-72
2023/10/11 08:27:23;;;;;;;7.23;6.20;;;16.00;99.90;;;;;;5052849;28;20190;-72
2023/10/11 08:29:54;;;;;;;7.97;6.10;;;16.00;99.90;;;;;;5078476;28;20557;-72
2023/10/11 08:32:26;;;;;;;7.33;5.77;;;16.00;99.90;;;;;;5048553;28;20213;-72
2023/10/11 08:34:56;;;;;;;7.73;5.33;;;16.10;99.90;;;;;;5045972;28;20364;-72
2023/10/11 08:37:23;;;;;;;5.00;4.50;;;16.10;99.90;;;;;;5056010;28;20202;-72
2023/10/11 08:39:54;;;;;;;6.03;5.33;;;16.20;99.90;;;;;;5049546;28;20662;-72
2023/10/11 08:42:22;;;;;;;6.27;5.07;;;16.20;99.90;;;;;;5049893;28;20306;-72
2023/10/11 08:44:51;;;;;;;6.70;5.13;;;16.30;99.90;;;;;;5054569;28;20289;-72
2023/10/11 08:47:19;;;;;;;6.53;4.97;;;16.30;99.90;;;;;;5051091;28;20630;-72
2023/10/11 08:49:50;;;;;;;9.13;5.50;;;16.40;99.90;;;;;;5048531;28;20198;-72
2023/10/11 08:52:22;;;;;;;6.77;4.57;;;16.40;99.90;;;;;;5057257;28;20207;-72
2023/10/11 08:54:50;;;;;;;7.70;5.63;;;16.50;99.90;;;;;;5047522;28;20204;-72
2023/10/11 08:57:23;;;;;;;9.77;6.30;;;16.50;99.90;;;;;;5066764;28;20623;-72
2023/10/11 08:59:51;;;;;;;6.40;5.10;;;16.60;99.90;;;;;;5048889;28;20234;-72
2023/10/11 09:02:19;;;;;;;7.87;6.27;;;16.70;99.90;;;;;;5053912;28;20196;-72
2023/10/11 09:05:28;;;;;;;7.93;5.63;;;16.70;99.90;;;;;;5071819;28;20287;-72
2023/10/11 09:07:55;;;;;;;11.13;5.60;;;16.80;99.90;;;;;;5049151;28;20727;-72
2023/10/11 09:10:25;;;;;;;8.63;5.03;;;16.80;99.90;;;;;;5047912;28;20194;-73
2023/10/11 09:12:57;;;;;;;5.97;4.37;;;16.90;99.90;;;;;;5057940;28;20696;-72
2023/10/11 09:15:25;;;;;;;5.10;4.60;;;17.00;99.90;;;;;;5045613;28;20634;-72
2023/10/11 09:18:14;;;;;;;7.00;4.93;;;17.30;99.90;;;;;;5052578;28;20194;-73
2023/10/11 09:20:49;;;;;;;4.17;3.77;;;17.10;99.90;;;;;;5056891;28;20186;-72
2023/10/11 09:23:20;;;;;;;4.73;4.20;;;17.20;99.90;;;;;;5041676;28;20215;-72
2023/10/11 09:25:58;;;;;;;7.47;4.63;;;17.20;99.90;;;;;;5055646;28;20286;-73
2023/10/11 09:28:26;;;;;;;8.13;4.93;;;17.30;99.90;;;;;;5046349;28;20215;-73
2023/10/11 09:31:11;;;;;;;7.00;5.43;;;17.40;99.90;;;;;;5052964;28;20320;-71
2023/10/11 09:33:40;;;;;;;7.27;5.30;;;17.40;99.90;;;;;;5052048;28;20680;-73
2023/10/11 09:36:09;;;;;;;13.40;5.28;;;17.40;99.90;;;;;;5049413;28;20709;-73
2023/10/11 09:38:42;;;;;;;6.53;4.10;;;17.50;99.90;;;;;;5057247;28;20196;-72
2023/10/11 09:41:10;;;;;;;3.93;3.53;;;17.60;99.90;;;;;;5053824;28;20212;-72
2023/10/11 09:43:42;;;;;;;4.27;3.83;;;17.60;99.90;;;;;;5045033;28;20220;-72
2023/10/11 09:46:12;;;;;;;5.90;4.37;;;17.70;99.90;;;;;;5048379;28;20205;-72
2023/10/11 09:48:40;;;;;;;11.80;5.03;;;17.80;99.90;;;;;;5051435;28;20202;-73
2023/10/11 09:51:13;;;;;;;5.80;4.73;;;17.90;99.90;;;;;;5047817;28;20195;-72
2023/10/11 09:53:42;;;;;;;7.35;4.53;;;18.00;99.90;;;;;;5059651;28;20212;-72
2023/10/11 09:56:24;;;;;;;5.77;4.20;;;18.00;99.90;;;;;;5054070;28;20201;-73
2023/10/11 09:59:06;;;;;;;7.32;4.55;;;18.10;99.90;;;;;;5051809;28;20564;-73
2023/10/11 10:01:42;;;;;;;5.32;4.07;;;18.40;99.90;;;;;;5064081;28;20782;-73
2023/10/11 10:04:12;;;;;;;3.83;3.43;;;18.70;99.90;;;;;;5045004;28;20549;-73
2023/10/11 10:07:21;;;;;;;5.03;3.97;;;18.90;99.90;;;;;;5044491;28;20638;-72
2023/10/11 10:09:53;;;;;;;4.90;3.65;;;18.90;99.90;;;;;;5039187;28;20247;-73
2023/10/11 10:12:25;;;;;;;6.13;4.05;;;18.90;99.90;;;;;;5045013;28;20201;-73
2023/10/11 10:15:12;;;;;;;6.47;3.90;;;18.90;99.90;;;;;;5051842;28;20213;-73
2023/10/11 10:17:42;;;;;;;5.38;3.95;;;18.80;99.90;;;;;;5034416;28;20197;-70
2023/10/11 10:20:43;;;;;;;7.90;3.78;;;18.80;99.90;;;;;;5044391;28;20680;-73
2023/10/11 10:23:29;;;;;;;6.18;3.67;;;19.00;99.90;;;;;;5037927;28;20219;-73
2023/10/11 10:26:38;;;;;;;6.13;3.90;;;19.00;99.90;;;;;;5053188;28;20584;-73
2023/10/11 10:29:11;;;;;;;4.60;3.97;;;19.00;99.90;;;;;;5043239;28;20734;-72
2023/10/11 10:32:07;;;;;;;3.58;3.25;;;18.90;99.90;;;;;;5033949;28;20198;-72
2023/10/11 10:34:35;;;;;;;3.28;2.97;;;18.90;99.90;;;;;;5044836;28;20225;-73
2023/10/11 10:37:06;;;;;;;3.88;3.50;;;18.90;99.90;;;;;;5048856;28;20545;-73
2023/10/11 10:39:36;;;;;;;3.25;2.95;;;18.90;99.90;;;;;;5040729;28;20194;-73
2023/10/11 10:42:15;;;;;;;3.67;3.20;;;18.90;99.90;;;;;;5048795;28;20583;-73
2023/10/11 10:44:55;;;;;;;4.28;3.83;;;18.90;99.90;;;;;;5047498;28;20281;-73
2023/10/11 10:47:32;;;;;;;9.32;3.97;;;18.80;99.90;;;;;;5046166;28;20198;-73
2023/10/11 10:50:09;;;;;;;3.83;3.20;;;18.90;99.90;;;;;;5049583;28;20232;-73
2023/10/11 10:52:39;;;;;;;4.35;2.90;;;18.90;99.90;;;;;;5052538;28;20193;-73
2023/10/11 10:55:07;;;;;;;3.40;3.08;;;19.00;99.90;;;;;;5045580;28;20198;-73
2023/10/11 10:57:36;;;;;;;4.40;3.40;;;19.00;99.90;;;;;;5041849;28;20276;-73
2023/10/11 11:00:07;;;;;;;3.20;2.90;;;19.10;99.90;;;;;;5042707;28;20237;-73
2023/10/11 11:02:38;;;;;;;4.10;3.55;;;19.20;99.90;;;;;;5048343;28;20859;-73
2023/10/11 11:05:24;;;;;;;5.80;3.50;;;19.20;99.90;;;;;;5045594;28;20289;-72
2023/10/11 11:07:50;;;;;;;4.30;3.15;;;19.30;99.90;;;;;;5038966;28;20212;-73
2023/10/11 11:10:20;;;;;;;3.65;3.28;;;19.40;99.90;;;;;;5046756;28;20194;-73
2023/10/11 11:12:46;;;;;;;3.60;3.30;;;19.40;99.90;;;;;;5046403;28;20189;-73
2023/10/11 11:15:20;;;;;;;3.33;3.00;;;19.40;99.90;;;;;;5048651;28;20200;-73
2023/10/11 11:17:50;;;;;;;3.88;3.35;;;19.40;99.90;;;;;;5052022;28;20311;-73
2023/10/11 11:20:28;;;;;;;3.63;2.90;;;19.40;99.90;;;;;;5048397;28;20194;-73
2023/10/11 11:22:55;;;;;;;4.40;3.00;;;19.40;99.90;;;;;;5051055;28;20313;-73
2023/10/11 11:25:30;;;;;;;3.25;2.78;;;19.40;99.90;;;;;;5048591;28;20524;-73
2023/10/11 11:28:14;;;;;;;3.45;2.83;;;19.50;99.90;;;;;;5041170;28;20202;-73
2023/10/11 11:30:43;;;;;;;4.07;3.35;;;19.50;99.90;;;;;;5058508;28;20571;-73
2023/10/11 11:33:28;;;;;;;4.60;3.53;;;19.50;99.90;;;;;;5049545;28;20737;-73
2023/10/11 11:35:56;;;;;;;5.32;4.03;;;19.50;99.90;;;;;;5048406;28;20760;-73
2023/10/11 11:38:22;;;;;;;5.38;3.70;;;19.50;99.90;;;;;;5054561;28;20193;-73
2023/10/11 11:40:51;;;;;;;4.88;3.10;;;19.50;99.90;;;;;;5046105;28;20190;-73
2023/10/11 11:43:20;;;;;;;3.65;2.92;;;19.60;99.90;;;;;;5054691;28;20315;-73
2023/10/11 11:45:51;;;;;;;5.00;3.60;;;19.70;99.90;;;;;;5047745;28;20265;-73
2023/10/11 11:48:23;;;;;;;4.57;3.30;;;19.70;99.90;;;;;;5035277;28;20198;-73
2023/10/11 11:50:50;;;;;;;4.85;3.85;;;19.70;99.90;;;;;;5063799;28;20336;-73
2023/10/11 11:53:18;;;;;;;6.05;3.58;;;19.70;99.90;;;;;;5040995;28;20279;-73
2023/10/11 11:55:45;;;;;;;5.18;3.10;;;19.80;99.90;;;;;;5055961;28;20556;-73
2023/10/11 11:58:16;;;;;;;4.22;2.88;;;19.80;99.90;;;;;;5067638;28;20185;-73
2023/10/11 12:00:45;;;;;;;3.47;2.80;;;19.80;99.90;;;;;;5049621;28;20261;-73
2023/10/11 12:03:13;;;;;;;3.88;2.90;;;19.90;99.90;;;;;;5051657;28;20646;-73
2023/10/11 12:05:40;;;;;;;4.18;2.90;;;19.90;99.90;;;;;;5054594;28;20636;-73
2023/10/11 12:08:18;;;;;;;3.10;2.63;;;19.90;99.90;;;;;;5044152;28;20659;-74
2023/10/11 12:10:47;;;;;;;4.75;3.03;;;19.90;99.90;;;;;;5049856;28;20198;-73
2023/10/11 12:13:22;;;;;;;8.38;3.05;;;19.90;99.90;;;;;;5049679;28;20214;-73
2023/10/11 12:15:54;;;;;;;4.43;2.90;;;19.90;99.90;;;;;;5048010;28;20660;-73
2023/10/11 12:18:32;;;;;;;3.10;2.80;;;19.90;99.90;;;;;;5057799;28;20194;-73
2023/10/11 12:21:00;;;;;;;3.63;2.70;;;19.90;99.90;;;;;;5048166;28;20190;-73
2023/10/11 12:23:28;;;;;;;5.40;2.60;;;19.90;99.90;;;;;;5059230;28;20185;-73
2023/10/11 12:25:56;;;;;;;3.85;2.70;;;19.90;99.90;;;;;;5059002;28;20201;-73
2023/10/11 12:28:25;;;;;;;3.40;3.10;;;19.90;99.90;;;;;;5049762;28;20204;-73
2023/10/11 12:30:54;;;;;;;2.78;2.53;;;20.00;99.90;;;;;;5056021;28;20189;-73
2023/10/11 12:33:21;;;;;;;6.70;2.97;;;20.00;99.90;;;;;;5059396;28;20209;-73
2023/10/11 12:35:49;;;;;;;2.55;2.35;;;20.00;99.90;;;;;;5048902;28;20202;-73
2023/10/11 12:38:16;;;;;;;5.40;3.03;;;20.00;99.90;;;;;;5052632;28;20640;-73
2023/10/11 12:40:45;;;;;;;2.92;2.65;;;20.10;99.90;;;;;;5055983;28;20197;-73
2023/10/11 12:43:12;;;;;;;2.67;2.47;;;20.10;99.90;;;;;;5053899;28;20186;-73
2023/10/11 12:45:42;;;;;;;3.95;2.92;;;20.10;99.90;;;;;;5050173;28;20679;-73
2023/10/11 12:48:10;;;;;;;3.47;2.58;;;20.10;99.90;;;;;;5041627;28;20609;-73
2023/10/11 12:50:37;;;;;;;3.67;2.83;;;20.20;99.90;;;;;;5045679;28;20648;-72
2023/10/11 12:53:12;;;;;;;2.70;2.50;;;20.30;99.90;;;;;;5063153;28;20239;-73
2023/10/11 12:55:43;;;;;;;3.03;2.30;;;20.30;99.90;;;;;;5054083;28;20194;-73
2023/10/11 12:58:13;;;;;;;3.63;2.67;;;20.40;99.90;;;;;;5050722;28;20263;-73
2023/10/11 13:00:48;;;;;;;6.05;3.30;;;20.40;99.90;;;;;;5049243;28;20548;-73
2023/10/11 13:03:18;;;;;;;4.20;3.00;;;20.50;99.90;;;;;;5048564;28;20659;-73
2023/10/11 13:05:46;;;;;;;3.08;2.60;;;20.50;99.90;;;;;;5054930;28;20564;-73
2023/10/11 13:08:14;;;;;;;2.55;2.35;;;20.50;99.90;;;;;;5052723;28;20209;-73
2023/10/11 13:10:46;;;;;;;2.88;2.45;;;20.50;99.90;;;;;;5040981;28;20202;-73
2023/10/11 13:13:15;;;;;;;2.63;2.42;;;20.50;99.90;;;;;;5051355;28;20190;-73
2023/10/11 13:15:53;;;;;;;5.15;2.75;;;20.50;99.90;;;;;;5053009;28;20194;-73
2023/10/11 13:18:21;;;;;;;3.03;2.45;;;20.50;99.90;;;;;;5051119;28;20717;-73
2023/10/11 13:20:48;;;;;;;3.85;3.28;;;20.50;99.90;;;;;;5059175;28;20844;-73